Time,TemperatureF,DewpointF,PressureIn,WindDirection,WindDirectionDegrees,WindSpeedMPH,WindSpeedGustMPH,Humidity,HourlyPrecipIn,Conditions,Clouds,dailyrainin,SoftwareType,DateUTC
2013-01-06 00:03:00,33.7,30.4,29.68,WSW,248,3.4,4.0,88,0.00,,,0.00,WUHU216HW,2013-01-06 06:03:00,
2013-01-06 00:08:00,33.7,30.4,29.68,WSW,248,3.4,4.0,88,0.00,,,0.00,WUHU216HW,2013-01-06 06:08:00,
2013-01-06 00:13:00,33.5,30.2,29.68,WSW,248,2.9,3.6,88,0.00,,,0.00,WUHU216HW,2013-01-06 06:13:00,
2013-01-06 00:18:00,33.5,30.2,29.68,WSW,248,2.5,4.0,88,0.00,,,0.00,WUHU216HW,2013-01-06 06:18:00,
2013-01-06 00:23:00,33.7,30.4,29.68,SW,225,3.1,4.3,88,0.00,,,0.00,WUHU216HW,2013-01-06 06:23:00,
2013-01-06 00:28:00,33.7,30.4,29.68,SW,225,4.7,5.4,88,0.00,,,0.00,WUHU216HW,2013-01-06 06:28:00,
2013-01-06 00:33:00,33.7,30.4,29.68,SW,225,3.4,5.4,88,0.00,,,0.00,WUHU216HW,2013-01-06 06:33:00,
2013-01-06 00:38:00,33.7,30.4,29.68,SW,225,3.4,4.7,88,0.00,,,0.00,WUHU216HW,2013-01-06 06:38:00,
2013-01-06 00:43:00,33.7,30.4,29.68,WSW,248,3.4,4.7,88,0.00,,,0.00,WUHU216HW,2013-01-06 06:43:00,
2013-01-06 00:48:00,33.7,30.2,29.68,SW,225,3.4,5.4,87,0.00,,,0.00,WUHU216HW,2013-01-06 06:48:00,
2013-01-06 00:53:00,33.5,30.0,29.68,WSW,248,2.5,5.4,87,0.00,,,0.00,WUHU216HW,2013-01-06 06:53:00,
2013-01-06 00:58:00,33.7,30.2,29.68,WSW,248,2.7,4.5,87,0.00,,,0.00,WUHU216HW,2013-01-06 06:58:00,
2013-01-06 01:03:00,33.5,30.0,29.68,WSW,248,2.5,4.0,87,0.00,,,0.00,WUHU216HW,2013-01-06 07:03:00,
2013-01-06 01:08:00,33.5,30.0,29.68,WSW,248,3.1,3.4,87,0.00,,,0.00,WUHU216HW,2013-01-06 07:08:00,
2013-01-06 01:13:00,33.5,30.0,29.68,WSW,248,3.8,4.3,87,0.00,,,0.00,WUHU216HW,2013-01-06 07:13:00,
2013-01-06 01:18:00,33.5,29.7,29.68,WSW,248,2.7,4.3,86,0.00,,,0.00,WUHU216HW,2013-01-06 07:18:00,
2013-01-06 01:23:00,33.7,29.8,29.68,SW,225,2.5,4.0,86,0.00,,,0.00,WUHU216HW,2013-01-06 07:23:00,
2013-01-06 01:28:00,33.7,29.5,29.68,SW,225,1.8,4.3,85,0.00,,,0.00,WUHU216HW,2013-01-06 07:28:00,
2013-01-06 01:33:00,33.5,28.8,29.68,WSW,248,3.8,4.3,83,0.00,,,0.00,WUHU216HW,2013-01-06 07:33:00,
2013-01-06 01:38:00,33.5,28.5,29.69,WSW,248,4.7,4.7,82,0.00,,,0.00,WUHU216HW,2013-01-06 07:38:00,
2013-01-06 01:43:00,33.5,27.9,29.69,West,270,2.9,5.8,80,0.00,,,0.00,WUHU216HW,2013-01-06 07:43:00,
2013-01-06 01:48:00,33.3,27.5,29.69,SW,225,4.5,6.9,79,0.00,,,0.00,WUHU216HW,2013-01-06 07:48:00,
2013-01-06 01:53:00,33.1,27.3,29.69,West,270,8.5,8.5,79,0.00,,,0.00,WUHU216HW,2013-01-06 07:53:00,
2013-01-06 01:58:00,33.1,27.3,29.69,WNW,293,8.5,8.5,79,0.00,,,0.00,WUHU216HW,2013-01-06 07:58:00,
2013-01-06 02:03:00,33.1,27.3,29.69,West,270,5.8,8.5,79,0.00,,,0.00,WUHU216HW,2013-01-06 08:03:00,
2013-01-06 02:08:00,32.9,27.5,29.70,West,270,8.1,8.1,80,0.00,,,0.00,WUHU216HW,2013-01-06 08:08:00,
2013-01-06 02:13:00,32.8,26.6,29.70,West,270,6.5,8.1,78,0.00,,,0.00,WUHU216HW,2013-01-06 08:13:00,
2013-01-06 02:18:00,32.8,27.0,29.70,West,270,2.7,6.7,79,0.00,,,0.00,WUHU216HW,2013-01-06 08:18:00,
2013-01-06 02:23:00,32.6,26.8,29.71,SW,225,4.3,5.8,79,0.00,,,0.00,WUHU216HW,2013-01-06 08:23:00,
2013-01-06 02:28:00,32.4,27.0,29.70,WNW,293,2.5,6.0,80,0.00,,,0.00,WUHU216HW,2013-01-06 08:28:00,
2013-01-06 02:33:00,32.4,27.0,29.70,WNW,293,1.3,6.0,80,0.00,,,0.00,WUHU216HW,2013-01-06 08:33:00,
2013-01-06 02:38:00,32.4,27.0,29.70,West,270,3.4,3.4,80,0.00,,,0.00,WUHU216HW,2013-01-06 08:38:00,
2013-01-06 02:43:00,32.2,26.8,29.71,WSW,248,2.9,4.0,80,0.00,,,0.00,WUHU216HW,2013-01-06 08:43:00,
2013-01-06 02:48:00,31.9,26.1,29.71,WSW,248,4.5,5.1,79,0.00,,,0.00,WUHU216HW,2013-01-06 08:48:00,
2013-01-06 02:53:00,31.7,25.9,29.70,West,270,2.0,5.1,79,0.00,,,0.00,WUHU216HW,2013-01-06 08:53:00,
2013-01-06 02:58:00,31.7,26.3,29.70,West,270,2.2,4.7,80,0.00,,,0.00,WUHU216HW,2013-01-06 08:58:00,
2013-01-06 03:03:00,31.5,26.1,29.70,West,270,2.0,3.4,80,0.00,,,0.00,WUHU216HW,2013-01-06 09:03:00,
2013-01-06 03:08:00,31.3,25.6,29.70,West,270,5.6,5.6,79,0.00,,,0.00,WUHU216HW,2013-01-06 09:08:00,
2013-01-06 03:13:00,31.1,25.4,29.70,WSW,248,4.0,5.6,79,0.00,,,0.00,WUHU216HW,2013-01-06 09:13:00,
2013-01-06 03:18:00,30.8,25.0,29.70,WSW,248,2.0,4.5,79,0.00,,,0.00,WUHU216HW,2013-01-06 09:18:00,
2013-01-06 03:23:00,30.6,24.8,29.70,West,270,1.8,4.5,79,0.00,,,0.00,WUHU216HW,2013-01-06 09:23:00,
2013-01-06 03:28:00,30.6,25.2,29.70,West,270,2.5,3.6,80,0.00,,,0.00,WUHU216HW,2013-01-06 09:28:00,
2013-01-06 03:33:00,30.4,25.0,29.71,WSW,248,5.8,5.8,80,0.00,,,0.00,WUHU216HW,2013-01-06 09:33:00,
2013-01-06 03:38:00,30.1,24.7,29.70,WSW,248,4.0,6.5,80,0.00,,,0.00,WUHU216HW,2013-01-06 09:38:00,
2013-01-06 03:43:00,29.9,24.5,29.70,West,270,3.1,6.5,80,0.00,,,0.00,WUHU216HW,2013-01-06 09:43:00,
2013-01-06 03:48:00,29.9,24.5,29.71,WSW,248,2.5,3.6,80,0.00,,,0.00,WUHU216HW,2013-01-06 09:48:00,
2013-01-06 03:54:00,29.7,24.3,29.71,WNW,293,4.7,4.7,80,0.00,,,0.00,WUHU216HW,2013-01-06 09:54:00,
2013-01-06 03:59:00,29.3,23.9,29.71,West,270,4.7,6.3,80,0.00,,,0.00,WUHU216HW,2013-01-06 09:59:00,
2013-01-06 04:04:00,29.2,23.8,29.71,WNW,293,4.0,6.3,80,0.00,,,0.00,WUHU216HW,2013-01-06 10:04:00,
2013-01-06 04:09:00,28.8,23.4,29.71,WSW,248,3.1,5.6,80,0.00,,,0.00,WUHU216HW,2013-01-06 10:09:00,
2013-01-06 04:14:00,28.4,23.0,29.71,West,270,3.1,5.6,80,0.00,,,0.00,WUHU216HW,2013-01-06 10:14:00,
2013-01-06 04:19:00,28.3,22.9,29.72,WSW,248,4.7,4.7,80,0.00,,,0.00,WUHU216HW,2013-01-06 10:19:00,
2013-01-06 04:24:00,28.1,22.7,29.72,NW,315,3.4,6.9,80,0.00,,,0.00,WUHU216HW,2013-01-06 10:24:00,
2013-01-06 04:29:00,27.7,22.3,29.72,SSE,158,4.9,6.9,80,0.00,,,0.00,WUHU216HW,2013-01-06 10:29:00,
2013-01-06 04:34:00,27.5,22.1,29.72,West,270,5.1,5.1,80,0.00,,,0.00,WUHU216HW,2013-01-06 10:34:00,
2013-01-06 04:39:00,27.2,21.8,29.72,WSW,248,3.6,6.3,80,0.00,,,0.00,WUHU216HW,2013-01-06 10:39:00,
2013-01-06 04:44:00,27.0,21.6,29.72,WSW,248,5.4,6.3,80,0.00,,,0.00,WUHU216HW,2013-01-06 10:44:00,
2013-01-06 04:49:00,26.6,21.0,29.73,West,270,5.4,6.3,79,0.00,,,0.00,WUHU216HW,2013-01-06 10:49:00,
2013-01-06 04:54:00,26.3,20.6,29.73,NW,315,5.4,7.6,79,0.00,,,0.00,WUHU216HW,2013-01-06 10:54:00,
2013-01-06 04:59:00,26.1,20.4,29.73,WSW,248,5.8,7.6,79,0.00,,,0.00,WUHU216HW,2013-01-06 10:59:00,
2013-01-06 05:04:00,25.7,20.1,29.73,West,270,4.3,7.2,79,0.00,,,0.00,WUHU216HW,2013-01-06 11:04:00,
2013-01-06 05:09:00,25.6,20.0,29.74,SW,225,3.4,7.2,79,0.00,,,0.00,WUHU216HW,2013-01-06 11:09:00,
2013-01-06 05:14:00,25.2,19.6,29.74,West,270,5.4,6.3,79,0.00,,,0.00,WUHU216HW,2013-01-06 11:14:00,
2013-01-06 05:19:00,24.8,19.3,29.74,WSW,248,4.0,6.3,79,0.00,,,0.00,WUHU216HW,2013-01-06 11:19:00,
2013-01-06 05:24:00,24.7,19.1,29.74,WNW,293,8.5,8.5,79,0.00,,,0.00,WUHU216HW,2013-01-06 11:24:00,
2013-01-06 05:29:00,24.3,18.7,29.75,SSE,158,7.8,9.8,79,0.00,,,0.00,WUHU216HW,2013-01-06 11:29:00,
2013-01-06 05:34:00,24.1,18.3,29.75,SW,225,4.9,9.8,78,0.00,,,0.00,WUHU216HW,2013-01-06 11:34:00,
2013-01-06 05:39:00,24.1,18.3,29.75,SSW,203,5.6,8.9,78,0.00,,,0.00,WUHU216HW,2013-01-06 11:39:00,
2013-01-06 05:44:00,24.1,18.3,29.76,NW,315,6.9,8.9,78,0.00,,,0.00,WUHU216HW,2013-01-06 11:44:00,
2013-01-06 05:49:00,23.9,18.1,29.76,West,270,6.9,8.5,78,0.00,,,0.00,WUHU216HW,2013-01-06 11:49:00,
2013-01-06 05:54:00,23.8,17.7,29.76,West,270,4.0,9.2,77,0.00,,,0.00,WUHU216HW,2013-01-06 11:54:00,
2013-01-06 05:59:00,23.6,17.5,29.76,WSW,248,4.3,9.2,77,0.00,,,0.00,WUHU216HW,2013-01-06 11:59:00,
2013-01-06 06:04:00,23.4,17.3,29.76,SSE,158,5.4,7.6,77,0.00,,,0.00,WUHU216HW,2013-01-06 12:04:00,
2013-01-06 06:09:00,23.2,17.1,29.77,WSW,248,3.6,7.6,77,0.00,,,0.00,WUHU216HW,2013-01-06 12:09:00,
2013-01-06 06:14:00,23.2,17.4,29.77,SSW,203,0.2,4.7,78,0.00,,,0.00,WUHU216HW,2013-01-06 12:14:00,
2013-01-06 06:19:00,23.2,17.4,29.77,WSW,248,4.7,4.7,78,0.00,,,0.00,WUHU216HW,2013-01-06 12:19:00,
2013-01-06 06:24:00,23.2,17.4,29.78,West,270,3.4,4.7,78,0.00,,,0.00,WUHU216HW,2013-01-06 12:24:00,
2013-01-06 06:29:00,23.2,17.4,29.78,West,270,2.7,4.0,78,0.00,,,0.00,WUHU216HW,2013-01-06 12:29:00,
2013-01-06 06:34:00,23.2,17.4,29.78,West,270,2.9,4.0,78,0.00,,,0.00,WUHU216HW,2013-01-06 12:34:00,
2013-01-06 06:39:00,23.0,17.2,29.78,West,270,2.7,4.9,78,0.00,,,0.00,WUHU216HW,2013-01-06 12:39:00,
2013-01-06 06:44:00,22.9,17.0,29.78,West,270,4.5,5.6,78,0.00,,,0.00,WUHU216HW,2013-01-06 12:44:00,
2013-01-06 06:49:00,23.0,17.6,29.79,West,270,4.0,5.6,79,0.00,,,0.00,WUHU216HW,2013-01-06 12:49:00,
2013-01-06 06:54:00,23.0,17.6,29.79,WSW,248,3.4,4.3,79,0.00,,,0.00,WUHU216HW,2013-01-06 12:54:00,
2013-01-06 06:59:00,23.0,17.6,29.79,WSW,248,5.6,5.6,79,0.00,,,0.00,WUHU216HW,2013-01-06 12:59:00,
2013-01-06 07:04:00,23.0,17.6,29.79,West,270,4.5,5.6,79,0.00,,,0.00,WUHU216HW,2013-01-06 13:04:00,
2013-01-06 07:09:00,23.0,17.6,29.79,West,270,4.0,5.1,79,0.00,,,0.00,WUHU216HW,2013-01-06 13:09:00,
2013-01-06 07:14:00,23.2,18.0,29.79,WNW,293,4.0,4.0,80,0.00,,,0.00,WUHU216HW,2013-01-06 13:14:00,
2013-01-06 07:19:00,23.2,18.0,29.80,West,270,2.2,4.0,80,0.00,,,0.00,WUHU216HW,2013-01-06 13:19:00,
2013-01-06 07:24:00,23.2,18.0,29.80,West,270,5.1,5.1,80,0.00,,,0.00,WUHU216HW,2013-01-06 13:24:00,
2013-01-06 07:29:00,23.2,18.0,29.80,West,270,2.2,5.1,80,0.00,,,0.00,WUHU216HW,2013-01-06 13:29:00,
2013-01-06 07:34:00,23.2,18.0,29.81,WSW,248,1.6,4.5,80,0.00,,,0.00,WUHU216HW,2013-01-06 13:34:00,
2013-01-06 07:39:00,23.2,18.0,29.81,West,270,3.4,4.5,80,0.00,,,0.00,WUHU216HW,2013-01-06 13:39:00,
2013-01-06 07:44:00,23.4,18.2,29.81,WSW,248,2.5,4.3,80,0.00,,,0.00,WUHU216HW,2013-01-06 13:44:00,
2013-01-06 07:49:00,23.4,18.2,29.82,WSW,248,2.7,4.3,80,0.00,,,0.00,WUHU216HW,2013-01-06 13:49:00,
2013-01-06 07:54:00,23.4,18.2,29.82,West,270,3.6,4.0,80,0.00,,,0.00,WUHU216HW,2013-01-06 13:54:00,
2013-01-06 07:59:00,23.4,18.2,29.82,West,270,2.5,4.0,80,0.00,,,0.00,WUHU216HW,2013-01-06 13:59:00,
2013-01-06 08:05:00,23.4,18.5,29.82,WSW,248,4.0,4.7,81,0.00,,,0.00,WUHU216HW,2013-01-06 14:05:00,
2013-01-06 08:10:00,23.4,18.5,29.83,West,270,2.5,4.7,81,0.00,,,0.00,WUHU216HW,2013-01-06 14:10:00,
2013-01-06 08:15:00,23.6,18.6,29.83,SW,225,4.7,5.1,81,0.00,,,0.00,WUHU216HW,2013-01-06 14:15:00,
2013-01-06 08:20:00,23.6,18.6,29.83,WSW,248,3.8,5.1,81,0.00,,,0.00,WUHU216HW,2013-01-06 14:20:00,
2013-01-06 08:25:00,23.8,19.1,29.83,SW,225,2.5,4.0,82,0.00,,,0.00,WUHU216HW,2013-01-06 14:25:00,
2013-01-06 08:30:00,23.9,19.3,29.84,SW,225,7.4,7.4,82,0.00,,,0.00,WUHU216HW,2013-01-06 14:30:00,
2013-01-06 08:35:00,24.1,19.4,29.84,NW,315,2.9,7.4,82,0.00,,,0.00,WUHU216HW,2013-01-06 14:35:00,
2013-01-06 08:40:00,24.1,19.4,29.84,WSW,248,3.4,6.0,82,0.00,,,0.00,WUHU216HW,2013-01-06 14:40:00,
2013-01-06 08:45:00,24.3,19.6,29.84,West,270,3.8,6.0,82,0.00,,,0.00,WUHU216HW,2013-01-06 14:45:00,
2013-01-06 08:50:00,24.5,19.8,29.85,WSW,248,5.8,5.8,82,0.00,,,0.00,WUHU216HW,2013-01-06 14:50:00,
2013-01-06 08:55:00,24.7,20.0,29.85,WNW,293,5.8,5.8,82,0.00,,,0.00,WUHU216HW,2013-01-06 14:55:00,
2013-01-06 09:00:00,24.7,20.0,29.85,WNW,293,3.4,5.8,82,0.00,,,0.00,WUHU216HW,2013-01-06 15:00:00,
2013-01-06 09:05:00,24.7,20.0,29.86,WSW,248,4.0,6.3,82,0.00,,,0.00,WUHU216HW,2013-01-06 15:05:00,
2013-01-06 09:10:00,24.8,20.2,29.86,West,270,2.7,6.3,82,0.00,,,0.00,WUHU216HW,2013-01-06 15:10:00,
2013-01-06 09:15:00,25.2,20.5,29.86,WSW,248,2.9,4.9,82,0.00,,,0.00,WUHU216HW,2013-01-06 15:15:00,
2013-01-06 09:20:00,25.2,20.3,29.86,South,180,6.7,6.7,81,0.00,,,0.00,WUHU216HW,2013-01-06 15:20:00,
2013-01-06 09:25:00,25.2,20.3,29.87,WSW,248,3.4,6.9,81,0.00,,,0.00,WUHU216HW,2013-01-06 15:25:00,
2013-01-06 09:30:00,25.4,20.3,29.87,West,270,3.8,6.9,81,0.00,,,0.00,WUHU216HW,2013-01-06 15:30:00,
2013-01-06 09:35:00,25.6,20.5,29.87,West,270,3.6,5.4,81,0.00,,,0.00,WUHU216HW,2013-01-06 15:35:00,
2013-01-06 09:40:00,25.4,20.1,29.87,WSW,248,4.5,5.6,80,0.00,,,0.00,WUHU216HW,2013-01-06 15:40:00,
2013-01-06 09:45:00,25.6,20.3,29.87,SW,225,4.0,5.6,80,0.00,,,0.00,WUHU216HW,2013-01-06 15:45:00,
2013-01-06 09:50:00,25.6,20.3,29.88,WSW,248,2.5,8.3,80,0.00,,,0.00,WUHU216HW,2013-01-06 15:50:00,
2013-01-06 09:55:00,25.7,20.4,29.88,WSW,248,4.5,8.3,80,0.00,,,0.00,WUHU216HW,2013-01-06 15:55:00,
2013-01-06 10:00:00,26.1,20.8,29.89,WNW,293,4.0,7.6,80,0.00,,,0.00,WUHU216HW,2013-01-06 16:00:00,
2013-01-06 10:05:00,26.1,20.8,29.89,West,270,3.4,4.7,80,0.00,,,0.00,WUHU216HW,2013-01-06 16:05:00,
2013-01-06 10:10:00,26.3,21.3,29.89,WSW,248,3.4,4.9,81,0.00,,,0.00,WUHU216HW,2013-01-06 16:10:00,
2013-01-06 10:15:00,26.5,21.3,29.89,WNW,293,3.6,4.9,81,0.00,,,0.00,WUHU216HW,2013-01-06 16:15:00,
2013-01-06 10:20:00,26.6,21.5,29.90,West,270,5.1,5.1,81,0.00,,,0.00,WUHU216HW,2013-01-06 16:20:00,
2013-01-06 10:25:00,26.6,21.5,29.90,West,270,4.9,5.1,81,0.00,,,0.00,WUHU216HW,2013-01-06 16:25:00,
2013-01-06 10:30:00,26.6,21.5,29.90,West,270,3.1,4.9,81,0.00,,,0.00,WUHU216HW,2013-01-06 16:30:00,
2013-01-06 10:35:00,26.5,21.3,29.90,NW,315,2.5,4.7,81,0.00,,,0.00,WUHU216HW,2013-01-06 16:35:00,
2013-01-06 10:40:00,26.8,21.7,29.90,West,270,2.0,3.4,81,0.00,,,0.00,WUHU216HW,2013-01-06 16:40:00,
2013-01-06 10:45:00,26.8,21.7,29.90,West,270,4.0,4.0,81,0.00,,,0.00,WUHU216HW,2013-01-06 16:45:00,
2013-01-06 10:50:00,27.0,21.9,29.90,WSW,248,3.4,4.0,81,0.00,,,0.00,WUHU216HW,2013-01-06 16:50:00,
2013-01-06 10:55:00,27.2,21.8,29.90,SW,225,3.4,6.7,80,0.00,,,0.00,WUHU216HW,2013-01-06 16:55:00,
2013-01-06 11:00:00,27.2,21.8,29.90,SSW,203,1.1,6.7,80,0.00,,,0.00,WUHU216HW,2013-01-06 17:00:00,
2013-01-06 11:05:00,27.2,21.8,29.90,West,270,3.8,3.8,80,0.00,,,0.00,WUHU216HW,2013-01-06 17:05:00,
2013-01-06 11:10:00,27.4,22.0,29.90,West,270,3.8,3.8,80,0.00,,,0.00,WUHU216HW,2013-01-06 17:10:00,
2013-01-06 11:15:00,27.5,22.1,29.91,SW,225,1.6,3.8,80,0.00,,,0.00,WUHU216HW,2013-01-06 17:15:00,
2013-01-06 11:20:00,27.7,22.3,29.90,SSE,158,2.5,5.4,80,0.00,,,0.00,WUHU216HW,2013-01-06 17:20:00,
2013-01-06 11:25:00,28.1,22.7,29.91,NW,315,4.3,5.4,80,0.00,,,0.00,WUHU216HW,2013-01-06 17:25:00,
2013-01-06 11:30:00,28.3,22.6,29.91,West,270,2.2,4.3,79,0.00,,,0.00,WUHU216HW,2013-01-06 17:30:00,
2013-01-06 11:35:00,28.4,22.8,29.91,WSW,248,4.7,6.7,79,0.00,,,0.00,WUHU216HW,2013-01-06 17:35:00,
2013-01-06 11:40:00,28.6,23.0,29.91,NW,315,1.3,6.7,79,0.00,,,0.00,WUHU216HW,2013-01-06 17:40:00,
2013-01-06 11:45:00,29.2,23.5,29.91,SW,225,4.9,5.4,79,0.00,,,0.00,WUHU216HW,2013-01-06 17:45:00,
2013-01-06 11:50:00,29.5,23.8,29.91,West,270,2.9,4.9,79,0.00,,,0.00,WUHU216HW,2013-01-06 17:50:00,
2013-01-06 11:55:00,29.7,23.3,29.91,ESE,113,7.2,7.2,77,0.00,,,0.00,WUHU216HW,2013-01-06 17:55:00,
2013-01-06 12:00:00,29.9,23.9,29.91,SW,225,3.1,7.2,78,0.00,,,0.00,WUHU216HW,2013-01-06 18:00:00,
2013-01-06 12:05:00,29.9,23.5,29.92,West,270,1.1,5.8,77,0.00,,,0.00,WUHU216HW,2013-01-06 18:05:00,
2013-01-06 12:10:00,30.6,24.6,29.92,West,270,2.9,5.8,78,0.00,,,0.00,WUHU216HW,2013-01-06 18:10:00,
2013-01-06 12:15:00,31.3,25.3,29.92,WNW,293,2.0,5.4,78,0.00,,,0.00,WUHU216HW,2013-01-06 18:15:00,
2013-01-06 12:20:00,31.9,25.2,29.92,WSW,248,2.0,4.7,76,0.00,,,0.00,WUHU216HW,2013-01-06 18:20:00,
2013-01-06 12:25:00,31.7,25.0,29.92,WSW,248,2.9,4.7,76,0.00,,,0.00,WUHU216HW,2013-01-06 18:25:00,
2013-01-06 12:30:00,31.7,24.3,29.92,WSW,248,3.4,5.1,74,0.00,,,0.00,WUHU216HW,2013-01-06 18:30:00,
2013-01-06 12:35:00,31.5,23.9,29.92,WNW,293,2.9,6.5,73,0.00,,,0.00,WUHU216HW,2013-01-06 18:35:00,
2013-01-06 12:40:00,31.7,24.3,29.93,West,270,4.9,8.1,74,0.00,,,0.00,WUHU216HW,2013-01-06 18:40:00,
2013-01-06 12:45:00,32.4,25.0,29.93,North,0,6.7,8.1,74,0.00,,,0.00,WUHU216HW,2013-01-06 18:45:00,
2013-01-06 12:50:00,32.6,24.8,29.93,West,270,3.1,6.7,73,0.00,,,0.00,WUHU216HW,2013-01-06 18:50:00,
2013-01-06 12:55:00,32.8,24.4,29.93,West,270,4.9,4.9,71,0.00,,,0.00,WUHU216HW,2013-01-06 18:55:00,
2013-01-06 13:00:00,32.8,23.7,29.93,West,270,8.5,8.5,69,0.00,,,0.00,WUHU216HW,2013-01-06 19:00:00,
2013-01-06 13:05:00,33.3,25.2,29.93,North,0,3.1,8.5,72,0.00,,,0.00,WUHU216HW,2013-01-06 19:05:00,
2013-01-06 13:10:00,33.7,25.5,29.93,West,270,2.5,5.8,72,0.00,,,0.00,WUHU216HW,2013-01-06 19:10:00,
2013-01-06 13:15:00,34.2,25.8,29.93,West,270,2.5,7.6,71,0.00,,,0.00,WUHU216HW,2013-01-06 19:15:00,
2013-01-06 13:20:00,34.9,26.7,29.93,WNW,293,4.0,7.6,72,0.00,,,0.00,WUHU216HW,2013-01-06 19:20:00,
2013-01-06 13:25:00,35.6,27.5,29.93,WSW,248,4.3,5.4,72,0.00,,,0.00,WUHU216HW,2013-01-06 19:25:00,
2013-01-06 13:30:00,35.8,27.4,29.93,WNW,293,4.0,4.7,71,0.00,,,0.00,WUHU216HW,2013-01-06 19:30:00,
2013-01-06 13:36:00,35.8,27.4,29.94,West,270,2.7,4.7,71,0.00,,,0.00,WUHU216HW,2013-01-06 19:36:00,
2013-01-06 13:46:00,34.9,26.1,29.95,WNW,293,2.2,3.6,70,0.00,,,0.00,WUHU216HW,2013-01-06 19:46:00,
2013-01-06 13:51:00,34.4,25.9,29.95,WSW,248,2.5,3.4,71,0.00,,,0.00,WUHU216HW,2013-01-06 19:51:00,
2013-01-06 13:56:00,33.8,24.7,29.95,West,270,1.8,4.7,69,0.00,,,0.00,WUHU216HW,2013-01-06 19:56:00,
2013-01-06 14:01:00,34.2,25.4,29.95,SW,225,5.1,5.1,70,0.00,,,0.00,WUHU216HW,2013-01-06 20:01:00,
2013-01-06 14:07:00,34.6,25.7,29.95,WNW,293,1.1,5.1,70,0.00,,,0.00,WUHU216HW,2013-01-06 20:07:00,
2013-01-06 14:12:00,35.3,26.5,29.95,NW,315,5.4,5.4,70,0.00,,,0.00,WUHU216HW,2013-01-06 20:12:00,
2013-01-06 14:17:00,35.8,26.3,29.96,WSW,248,3.8,5.4,68,0.00,,,0.00,WUHU216HW,2013-01-06 20:17:00,
2013-01-06 14:22:00,35.8,26.7,29.96,West,270,4.5,4.9,69,0.00,,,0.00,WUHU216HW,2013-01-06 20:22:00,
2013-01-06 14:27:00,35.5,25.9,29.96,NW,315,4.0,4.5,68,0.00,,,0.00,WUHU216HW,2013-01-06 20:27:00,
2013-01-06 14:32:00,34.6,24.3,29.97,WSW,248,4.0,4.7,66,0.00,,,0.00,WUHU216HW,2013-01-06 20:32:00,
2013-01-06 14:37:00,33.7,23.8,29.97,West,270,2.7,5.1,67,0.00,,,0.00,WUHU216HW,2013-01-06 20:37:00,
2013-01-06 14:42:00,33.3,24.2,29.98,WSW,248,1.8,5.1,69,0.00,,,0.00,WUHU216HW,2013-01-06 20:42:00,
2013-01-06 14:47:00,32.8,23.7,29.98,WSW,248,2.9,5.4,69,0.00,,,0.00,WUHU216HW,2013-01-06 20:47:00,
2013-01-06 14:52:00,32.8,24.0,29.98,West,270,4.3,5.4,70,0.00,,,0.00,WUHU216HW,2013-01-06 20:52:00,
2013-01-06 14:57:00,32.4,23.8,29.98,West,270,3.8,5.1,70,0.00,,,0.00,WUHU216HW,2013-01-06 20:57:00,
2013-01-06 15:02:00,32.0,23.4,29.98,West,270,3.4,5.1,70,0.00,,,0.00,WUHU216HW,2013-01-06 21:02:00,
2013-01-06 15:07:00,31.7,22.7,29.98,West,270,2.5,4.7,69,0.00,,,0.00,WUHU216HW,2013-01-06 21:07:00,
2013-01-06 15:12:00,31.3,22.7,29.99,West,270,2.5,4.7,70,0.00,,,0.00,WUHU216HW,2013-01-06 21:12:00,
2013-01-06 15:17:00,31.0,22.3,29.99,West,270,2.2,4.0,70,0.00,,,0.00,WUHU216HW,2013-01-06 21:17:00,
2013-01-06 15:22:00,30.8,22.1,29.99,West,270,2.5,4.7,70,0.00,,,0.00,WUHU216HW,2013-01-06 21:22:00,
2013-01-06 15:27:00,30.6,22.0,29.99,WSW,248,2.5,4.7,70,0.00,,,0.00,WUHU216HW,2013-01-06 21:27:00,
2013-01-06 15:32:00,30.2,22.0,30.00,West,270,3.8,5.4,71,0.00,,,0.00,WUHU216HW,2013-01-06 21:32:00,
2013-01-06 15:37:00,30.2,22.0,30.00,West,270,4.9,5.4,71,0.00,,,0.00,WUHU216HW,2013-01-06 21:37:00,
2013-01-06 15:42:00,30.1,22.1,30.01,West,270,3.8,4.9,72,0.00,,,0.00,WUHU216HW,2013-01-06 21:42:00,
2013-01-06 15:47:00,30.1,22.1,30.01,WSW,248,3.6,4.0,72,0.00,,,0.00,WUHU216HW,2013-01-06 21:47:00,
2013-01-06 15:52:00,30.1,22.1,30.01,WSW,248,2.2,3.6,72,0.00,,,0.00,WUHU216HW,2013-01-06 21:52:00,
2013-01-06 15:57:00,29.7,21.8,30.01,WSW,248,2.5,3.4,72,0.00,,,0.00,WUHU216HW,2013-01-06 21:57:00,
2013-01-06 16:02:00,29.3,21.4,30.01,WNW,293,2.9,4.9,72,0.00,,,0.00,WUHU216HW,2013-01-06 22:02:00,
2013-01-06 16:07:00,29.2,21.6,30.01,West,270,1.8,4.9,73,0.00,,,0.00,WUHU216HW,2013-01-06 22:07:00,
2013-01-06 16:12:00,29.0,21.4,30.02,West,270,1.1,3.4,73,0.00,,,0.00,WUHU216HW,2013-01-06 22:12:00,
2013-01-06 16:17:00,28.6,21.1,30.02,WNW,293,0.7,3.4,73,0.00,,,0.00,WUHU216HW,2013-01-06 22:17:00,
2013-01-06 16:22:00,28.4,20.9,30.02,WNW,293,2.9,3.4,73,0.00,,,0.00,WUHU216HW,2013-01-06 22:22:00,
2013-01-06 16:27:00,28.1,20.5,30.02,West,270,2.7,4.0,73,0.00,,,0.00,WUHU216HW,2013-01-06 22:27:00,
2013-01-06 16:32:00,27.7,20.5,30.03,WNW,293,2.9,4.0,74,0.00,,,0.00,WUHU216HW,2013-01-06 22:32:00,
2013-01-06 16:37:00,27.4,19.8,30.03,West,270,2.2,2.9,73,0.00,,,0.00,WUHU216HW,2013-01-06 22:37:00,
2013-01-06 16:42:00,27.0,19.8,30.03,West,270,3.4,3.4,74,0.00,,,0.00,WUHU216HW,2013-01-06 22:42:00,
2013-01-06 16:47:00,26.8,19.6,30.03,WNW,293,1.8,3.4,74,0.00,,,0.00,WUHU216HW,2013-01-06 22:47:00,
2013-01-06 16:52:00,26.5,19.3,30.03,West,270,2.0,3.4,74,0.00,,,0.00,WUHU216HW,2013-01-06 22:52:00,
2013-01-06 16:57:00,26.3,19.4,30.03,WNW,293,1.8,3.4,75,0.00,,,0.00,WUHU216HW,2013-01-06 22:57:00,
2013-01-06 17:02:00,26.1,19.2,30.04,WSW,248,1.6,2.5,75,0.00,,,0.00,WUHU216HW,2013-01-06 23:02:00,
2013-01-06 17:07:00,25.9,19.0,30.04,WSW,248,0.7,2.2,75,0.00,,,0.00,WUHU216HW,2013-01-06 23:07:00,
2013-01-06 17:12:00,25.6,18.7,30.05,WSW,248,0.7,1.1,75,0.00,,,0.00,WUHU216HW,2013-01-06 23:12:00,
2013-01-06 17:17:00,25.0,18.5,30.05,SW,225,1.1,1.1,76,0.00,,,0.00,WUHU216HW,2013-01-06 23:17:00,
2013-01-06 17:22:00,24.8,18.6,30.05,SW,225,1.1,1.6,77,0.00,,,0.00,WUHU216HW,2013-01-06 23:22:00,
2013-01-06 17:27:00,24.5,18.9,30.05,WSW,248,1.6,1.8,79,0.00,,,0.00,WUHU216HW,2013-01-06 23:27:00,
2013-01-06 17:32:00,24.3,18.7,30.05,WSW,248,0.9,1.8,79,0.00,,,0.00,WUHU216HW,2013-01-06 23:32:00,
2013-01-06 17:38:00,24.1,18.5,30.06,SW,225,1.1,1.6,79,0.00,,,0.00,WUHU216HW,2013-01-06 23:38:00,
2013-01-06 17:43:00,23.8,17.9,30.06,SW,225,0.0,1.1,78,0.00,,,0.00,WUHU216HW,2013-01-06 23:43:00,
2013-01-06 17:48:00,23.6,17.7,30.06,SW,225,0.9,1.1,78,0.00,,,0.00,WUHU216HW,2013-01-06 23:48:00,
2013-01-06 17:53:00,23.4,17.9,30.06,SW,225,0.9,1.1,79,0.00,,,0.00,WUHU216HW,2013-01-06 23:53:00,
2013-01-06 17:58:00,23.0,17.8,30.06,SW,225,0.4,0.9,80,0.00,,,0.00,WUHU216HW,2013-01-06 23:58:00,
2013-01-06 18:03:00,22.9,17.4,30.06,SW,225,0.2,1.1,79,0.00,,,0.00,WUHU216HW,2013-01-07 00:03:00,
2013-01-06 18:08:00,22.9,17.0,30.07,SW,225,0.2,1.1,78,0.00,,,0.00,WUHU216HW,2013-01-07 00:08:00,
2013-01-06 18:13:00,22.9,17.0,30.07,WSW,248,0.9,1.1,78,0.00,,,0.00,WUHU216HW,2013-01-07 00:13:00,
2013-01-06 18:18:00,22.9,17.4,30.07,West,270,1.1,2.5,79,0.00,,,0.00,WUHU216HW,2013-01-07 00:18:00,
2013-01-06 18:23:00,22.9,17.0,30.07,West,270,1.8,2.5,78,0.00,,,0.00,WUHU216HW,2013-01-07 00:23:00,
2013-01-06 18:28:00,22.7,17.2,30.07,West,270,0.4,2.2,79,0.00,,,0.00,WUHU216HW,2013-01-07 00:28:00,
2013-01-06 18:33:00,22.5,17.0,30.07,WSW,248,0.4,2.2,79,0.00,,,0.00,WUHU216HW,2013-01-07 00:33:00,
2013-01-06 18:38:00,22.1,16.7,30.07,WSW,248,0.9,0.9,79,0.00,,,0.00,WUHU216HW,2013-01-07 00:38:00,
2013-01-06 18:43:00,22.0,16.7,30.07,WSW,248,0.4,1.1,80,0.00,,,0.00,WUHU216HW,2013-01-07 00:43:00,
2013-01-06 18:48:00,21.4,16.2,30.07,WSW,248,0.0,1.1,80,0.00,,,0.00,WUHU216HW,2013-01-07 00:48:00,
2013-01-06 18:53:00,21.2,16.0,30.07,WSW,248,0.0,0.0,80,0.00,,,0.00,WUHU216HW,2013-01-07 00:53:00,
2013-01-06 18:58:00,21.2,16.3,30.07,WSW,248,0.4,0.4,81,0.00,,,0.00,WUHU216HW,2013-01-07 00:58:00,
2013-01-06 19:03:00,21.2,16.3,30.07,WSW,248,0.0,0.4,81,0.00,,,0.00,WUHU216HW,2013-01-07 01:03:00,
2013-01-06 19:08:00,21.2,16.0,30.07,WSW,248,0.0,0.0,80,0.00,,,0.00,WUHU216HW,2013-01-07 01:08:00,
2013-01-06 19:13:00,21.2,16.0,30.07,WSW,248,0.0,0.0,80,0.00,,,0.00,WUHU216HW,2013-01-07 01:13:00,
2013-01-06 19:18:00,21.2,15.8,30.07,WSW,248,0.0,0.0,79,0.00,,,0.00,WUHU216HW,2013-01-07 01:18:00,
2013-01-06 19:23:00,20.9,15.7,30.08,SW,225,0.0,0.9,80,0.00,,,0.00,WUHU216HW,2013-01-07 01:23:00,
2013-01-06 19:28:00,21.1,15.6,30.08,SW,225,0.0,0.9,79,0.00,,,0.00,WUHU216HW,2013-01-07 01:28:00,
2013-01-06 19:33:00,20.9,15.4,30.08,SW,225,0.0,0.0,79,0.00,,,0.00,WUHU216HW,2013-01-07 01:33:00,
2013-01-06 19:38:00,20.9,15.4,30.07,SW,225,0.0,0.0,79,0.00,,,0.00,WUHU216HW,2013-01-07 01:38:00,
2013-01-06 19:43:00,20.9,15.4,30.08,SW,225,0.0,0.0,79,0.00,,,0.00,WUHU216HW,2013-01-07 01:43:00,
2013-01-06 19:48:00,20.9,15.4,30.08,SW,225,0.0,0.0,79,0.00,,,0.00,WUHU216HW,2013-01-07 01:48:00,
2013-01-06 19:53:00,20.7,14.9,30.07,SW,225,0.0,0.0,78,0.00,,,0.00,WUHU216HW,2013-01-07 01:53:00,
2013-01-06 19:58:00,20.5,14.7,30.07,SW,225,0.0,0.0,78,0.00,,,0.00,WUHU216HW,2013-01-07 01:58:00,
2013-01-06 20:03:00,20.3,14.5,30.07,ESE,113,0.0,0.0,78,0.00,,,0.00,WUHU216HW,2013-01-07 02:03:00,
2013-01-06 20:08:00,20.2,14.3,30.07,ESE,113,0.0,0.0,78,0.00,,,0.00,WUHU216HW,2013-01-07 02:08:00,
2013-01-06 20:13:00,20.0,14.1,30.07,ESE,113,0.0,0.0,78,0.00,,,0.00,WUHU216HW,2013-01-07 02:13:00,
2013-01-06 20:18:00,19.8,14.3,30.07,ESE,113,0.0,0.0,79,0.00,,,0.00,WUHU216HW,2013-01-07 02:18:00,
2013-01-06 20:23:00,19.8,14.3,30.07,SE,135,0.0,0.0,79,0.00,,,0.00,WUHU216HW,2013-01-07 02:23:00,
2013-01-06 20:28:00,19.6,14.1,30.07,SE,135,0.0,0.0,79,0.00,,,0.00,WUHU216HW,2013-01-07 02:28:00,
2013-01-06 20:33:00,19.4,14.2,30.08,SE,135,0.0,0.0,80,0.00,,,0.00,WUHU216HW,2013-01-07 02:33:00,
2013-01-06 20:38:00,19.6,14.4,30.08,SE,135,0.0,0.0,80,0.00,,,0.00,WUHU216HW,2013-01-07 02:38:00,
2013-01-06 20:44:00,19.6,14.4,30.08,SE,135,0.0,0.0,80,0.00,,,0.00,WUHU216HW,2013-01-07 02:44:00,
2013-01-06 20:49:00,19.4,14.2,30.08,SE,135,0.0,0.0,80,0.00,,,0.00,WUHU216HW,2013-01-07 02:49:00,
2013-01-06 20:54:00,19.1,13.9,30.09,SSW,203,0.0,0.0,80,0.00,,,0.00,WUHU216HW,2013-01-07 02:54:00,
2013-01-06 20:59:00,18.9,13.7,30.09,SSW,203,0.0,0.0,80,0.00,,,0.00,WUHU216HW,2013-01-07 02:59:00,
2013-01-06 21:04:00,18.5,13.6,30.10,WSW,248,0.0,0.0,81,0.00,,,0.00,WUHU216HW,2013-01-07 03:04:00,
2013-01-06 21:09:00,18.4,13.7,30.10,WSW,248,0.0,0.0,82,0.00,,,0.00,WUHU216HW,2013-01-07 03:09:00,
2013-01-06 21:14:00,18.0,13.1,30.09,WSW,248,0.0,0.0,81,0.00,,,0.00,WUHU216HW,2013-01-07 03:14:00,
2013-01-06 21:19:00,18.0,13.1,30.09,WSW,248,0.0,0.0,81,0.00,,,0.00,WUHU216HW,2013-01-07 03:19:00,
2013-01-06 21:24:00,18.2,13.2,30.09,WSW,248,0.0,0.0,81,0.00,,,0.00,WUHU216HW,2013-01-07 03:24:00,
2013-01-06 21:29:00,18.2,13.0,30.09,WSW,248,0.0,0.0,80,0.00,,,0.00,WUHU216HW,2013-01-07 03:29:00,
2013-01-06 21:34:00,18.0,12.8,30.09,WSW,248,0.0,0.0,80,0.00,,,0.00,WUHU216HW,2013-01-07 03:34:00,
2013-01-06 21:39:00,18.0,12.8,30.08,WSW,248,0.0,0.0,80,0.00,,,0.00,WUHU216HW,2013-01-07 03:39:00,
2013-01-06 21:44:00,17.8,12.3,30.08,SSE,158,0.0,0.0,79,0.00,,,0.00,WUHU216HW,2013-01-07 03:44:00,
2013-01-06 21:49:00,17.6,12.2,30.08,SSE,158,0.0,0.0,79,0.00,,,0.00,WUHU216HW,2013-01-07 03:49:00,
2013-01-06 21:54:00,17.6,12.2,30.08,SSE,158,0.0,0.0,79,0.00,,,0.00,WUHU216HW,2013-01-07 03:54:00,
2013-01-06 21:59:00,17.6,12.2,30.08,SSE,158,0.0,0.0,79,0.00,,,0.00,WUHU216HW,2013-01-07 03:59:00,
2013-01-06 22:04:00,17.6,12.2,30.08,South,180,0.0,0.0,79,0.00,,,0.00,WUHU216HW,2013-01-07 04:04:00,
2013-01-06 22:09:00,17.6,12.2,30.08,South,180,0.0,0.0,79,0.00,,,0.00,WUHU216HW,2013-01-07 04:09:00,
2013-01-06 22:14:00,17.6,12.4,30.09,South,180,0.0,0.0,80,0.00,,,0.00,WUHU216HW,2013-01-07 04:14:00,
2013-01-06 22:19:00,17.6,12.4,30.09,South,180,0.0,0.0,80,0.00,,,0.00,WUHU216HW,2013-01-07 04:19:00,
2013-01-06 22:24:00,17.8,12.6,30.09,South,180,0.0,0.0,80,0.00,,,0.00,WUHU216HW,2013-01-07 04:24:00,
2013-01-06 22:29:00,17.8,12.6,30.10,SSW,203,0.4,0.4,80,0.00,,,0.00,WUHU216HW,2013-01-07 04:29:00,
2013-01-06 22:34:00,17.6,12.7,30.10,SW,225,0.0,0.4,81,0.00,,,0.00,WUHU216HW,2013-01-07 04:34:00,
2013-01-06 22:39:00,17.5,12.5,30.10,SW,225,0.0,0.2,81,0.00,,,0.00,WUHU216HW,2013-01-07 04:39:00,
2013-01-06 22:44:00,17.6,12.7,30.09,SW,225,0.0,0.4,81,0.00,,,0.00,WUHU216HW,2013-01-07 04:44:00,
2013-01-06 22:49:00,17.6,12.7,30.10,SW,225,0.0,0.4,81,0.00,,,0.00,WUHU216HW,2013-01-07 04:49:00,
2013-01-06 22:54:00,17.3,12.1,30.09,SW,225,0.0,0.0,80,0.00,,,0.00,WUHU216HW,2013-01-07 04:54:00,
2013-01-06 22:59:00,17.1,12.0,30.10,SW,225,0.0,0.0,80,0.00,,,0.00,WUHU216HW,2013-01-07 04:59:00,
2013-01-06 23:04:00,16.9,11.8,30.10,SW,225,0.0,0.0,80,0.00,,,0.00,WUHU216HW,2013-01-07 05:04:00,
2013-01-06 23:09:00,16.7,11.6,30.10,SW,225,0.0,0.0,80,0.00,,,0.00,WUHU216HW,2013-01-07 05:09:00,
2013-01-06 23:14:00,16.7,11.6,30.10,SW,225,0.0,0.0,80,0.00,,,0.00,WUHU216HW,2013-01-07 05:14:00,
2013-01-06 23:19:00,16.7,11.6,30.09,SW,225,0.0,0.0,80,0.00,,,0.00,WUHU216HW,2013-01-07 05:19:00,
2013-01-06 23:24:00,16.6,11.4,30.10,SW,225,0.0,0.0,80,0.00,,,0.00,WUHU216HW,2013-01-07 05:24:00,
2013-01-06 23:29:00,16.2,11.2,30.10,SW,225,0.0,0.0,80,0.00,,,0.00,WUHU216HW,2013-01-07 05:29:00,
2013-01-06 23:34:00,16.2,11.2,30.09,SW,225,0.0,0.0,80,0.00,,,0.00,WUHU216HW,2013-01-07 05:34:00,
2013-01-06 23:39:00,16.4,11.3,30.09,SW,225,0.0,0.0,80,0.00,,,0.00,WUHU216HW,2013-01-07 05:39:00,
2013-01-06 23:44:00,16.4,11.3,30.09,SW,225,0.4,0.4,80,0.00,,,0.00,WUHU216HW,2013-01-07 05:44:00,
2013-01-06 23:49:00,16.6,11.7,30.09,SW,225,0.4,0.4,81,0.00,,,0.00,WUHU216HW,2013-01-07 05:49:00,
2013-01-06 23:54:00,16.4,11.5,30.09,SW,225,0.9,0.9,81,0.00,,,0.00,WUHU216HW,2013-01-07 05:54:00,
2013-01-06 23:59:00,16.4,11.5,30.09,SW,225,0.0,0.9,81,0.00,,,0.00,WUHU216HW,2013-01-07 05:59:00,